createdAt,value
2018-12-22T00:00:52.315Z,8.68
2018-12-22T00:03:21.782Z,8.77
2018-12-22T00:05:51.182Z,9.08
2018-12-22T00:08:20.871Z,9.47
2018-12-22T00:10:50.286Z,9.70
2018-12-22T00:13:19.688Z,8.60
2018-12-22T00:15:49.074Z,9.53
2018-12-22T00:18:19.183Z,10.05
2018-12-22T00:20:48.601Z,9.87
2018-12-22T00:23:17.993Z,10.00
2018-12-22T00:25:47.834Z,10.23
2018-12-22T00:28:22.121Z,9.67
2018-12-22T00:30:49.405Z,10.77
2018-12-22T00:33:19.156Z,9.50
2018-12-22T00:35:48.867Z,10.07
2018-12-22T00:38:18.299Z,8.50
2018-12-22T00:40:47.687Z,9.07
2018-12-22T00:43:17.238Z,8.93
2018-12-22T00:45:46.634Z,8.93
2018-12-22T00:48:15.993Z,8.60
2018-12-22T00:50:45.333Z,8.30
2018-12-22T00:53:14.745Z,8.50
2018-12-22T00:55:44.154Z,8.43
2018-12-22T00:58:13.562Z,8.50
2018-12-22T01:00:43.257Z,8.40
2018-12-22T01:03:13.103Z,8.03
2018-12-22T01:05:42.790Z,8.27
2018-12-22T01:08:13.472Z,9.13
2018-12-22T01:10:42.891Z,8.00
2018-12-22T01:13:13.181Z,8.83
2018-12-22T01:15:42.685Z,7.60
2018-12-22T01:18:12.347Z,8.07
2018-12-22T01:20:41.846Z,8.20
2018-12-22T01:23:11.374Z,7.33
2018-12-22T01:25:41.346Z,8.47
2018-12-22T01:28:10.851Z,8.20
2018-12-22T01:30:41.339Z,8.03
2018-12-22T01:33:10.703Z,8.00
2018-12-22T01:35:40.126Z,7.13
2018-12-22T01:38:09.478Z,7.90
2018-12-22T01:40:38.836Z,7.60
2018-12-22T01:43:08.266Z,6.87
2018-12-22T01:45:37.732Z,7.37
2018-12-22T01:48:07.398Z,6.57
2018-12-22T01:50:36.851Z,6.90
2018-12-22T01:53:06.340Z,7.10
2018-12-22T01:55:35.710Z,7.47
2018-12-22T01:58:05.969Z,7.10
2018-12-22T02:00:37.666Z,6.60
2018-12-22T02:03:07.051Z,6.47
2018-12-22T02:05:36.495Z,6.50
2018-12-22T02:08:06.148Z,7.03
2018-12-22T02:10:35.568Z,6.55
2018-12-22T02:13:05.051Z,6.63
2018-12-22T02:15:36.453Z,7.27
2018-12-22T02:18:05.830Z,7.23
2018-12-22T02:20:35.980Z,6.80
2018-12-22T02:23:05.442Z,6.63
2018-12-22T02:25:34.806Z,7.40
2018-12-22T02:28:04.449Z,7.30
2018-12-22T02:30:33.970Z,7.37
2018-12-22T02:33:03.928Z,6.30
2018-12-22T02:35:33.307Z,6.77
2018-12-22T02:38:02.837Z,6.77
2018-12-22T02:40:33.197Z,7.03
2018-12-22T02:43:02.826Z,6.53
2018-12-22T02:45:32.698Z,6.43
2018-12-22T02:48:02.416Z,7.43
2018-12-22T02:50:31.896Z,6.40
2018-12-22T02:53:02.844Z,6.60
2018-12-22T02:55:34.789Z,6.77
2018-12-22T02:58:06.078Z,6.13
2018-12-22T03:00:36.091Z,6.30
2018-12-22T03:03:07.112Z,6.73
2018-12-22T03:05:37.167Z,7.77
2018-12-22T03:08:06.951Z,6.03
2018-12-22T03:10:41.675Z,6.97
2018-12-22T03:13:11.947Z,6.87
2018-12-22T03:15:41.794Z,6.17
2018-12-22T03:18:11.605Z,6.13
2018-12-22T03:20:42.758Z,6.30
2018-12-22T03:23:12.733Z,6.60
2018-12-22T03:25:42.919Z,7.10
2018-12-22T03:28:12.515Z,6.50
2018-12-22T03:30:43.387Z,6.67
2018-12-22T03:33:17.372Z,6.60
2018-12-22T03:35:47.071Z,6.93
2018-12-22T03:38:17.193Z,5.63
2018-12-22T03:40:46.886Z,6.45
2018-12-22T03:43:16.380Z,6.27
2018-12-22T03:45:45.944Z,6.07
2018-12-22T03:48:17.441Z,6.10
2018-12-22T03:50:46.772Z,7.10
2018-12-22T03:53:16.992Z,6.23
2018-12-22T03:55:46.569Z,6.73
2018-12-22T03:58:16.178Z,6.47
2018-12-22T04:00:45.850Z,6.50
2018-12-22T04:03:15.858Z,6.57
2018-12-22T04:05:45.686Z,6.17
2018-12-22T04:08:15.104Z,6.37
2018-12-22T04:10:44.584Z,6.57
2018-12-22T04:13:14.036Z,5.80
2018-12-22T04:15:44.039Z,5.65
2018-12-22T04:18:13.465Z,6.20
2018-12-22T04:20:44.303Z,6.07
2018-12-22T04:23:13.762Z,6.00
2018-12-22T04:25:49.790Z,6.50
2018-12-22T04:28:22.217Z,6.57
2018-12-22T04:30:51.618Z,6.20
2018-12-22T04:33:21.012Z,6.00
2018-12-22T04:35:51.551Z,5.95
2018-12-22T04:38:21.300Z,6.47
2018-12-22T04:40:50.758Z,6.05
2018-12-22T04:43:20.955Z,5.50
2018-12-22T04:45:50.723Z,6.13
2018-12-22T04:48:20.770Z,6.83
2018-12-22T04:50:51.103Z,6.00
2018-12-22T04:53:23.203Z,5.70
2018-12-22T04:55:53.467Z,6.60
2018-12-22T04:58:23.754Z,6.27
2018-12-22T05:00:54.687Z,6.08
2018-12-22T05:03:24.071Z,6.15
2018-12-22T05:05:54.099Z,6.23
2018-12-22T05:08:23.478Z,6.13
2018-12-22T05:10:53.529Z,6.22
2018-12-22T05:13:24.245Z,5.80
2018-12-22T05:15:53.783Z,6.13
2018-12-22T05:18:23.861Z,6.47
2018-12-22T05:20:55.822Z,6.42
2018-12-22T05:23:27.008Z,5.70
2018-12-22T05:25:58.210Z,6.63
2018-12-22T05:28:28.303Z,6.30
2018-12-22T05:30:57.652Z,5.80
2018-12-22T05:33:31.653Z,6.53
2018-12-22T05:36:01.016Z,6.37
2018-12-22T05:38:30.771Z,6.40
2018-12-22T05:41:01.955Z,6.67
2018-12-22T05:43:32.411Z,6.17
2018-12-22T05:46:06.231Z,6.40
2018-12-22T05:48:36.946Z,5.73
2018-12-22T05:51:06.385Z,5.97
2018-12-22T05:53:43.847Z,6.70
2018-12-22T05:56:13.304Z,6.10
2018-12-22T05:58:46.548Z,6.23
2018-12-22T06:01:16.010Z,6.10
2018-12-22T06:03:45.691Z,6.97
2018-12-22T06:06:15.180Z,6.42
2018-12-22T06:08:45.021Z,6.70
2018-12-22T06:11:14.377Z,6.87
2018-12-22T06:13:43.798Z,7.80
2018-12-22T06:16:13.499Z,7.60
2018-12-22T06:18:43.054Z,7.20
2018-12-22T06:21:12.496Z,7.37
2018-12-22T06:23:42.938Z,7.43
2018-12-22T06:26:12.944Z,7.70
2018-12-22T06:28:43.024Z,8.10
2018-12-22T06:31:12.488Z,7.93
2018-12-22T06:33:42.718Z,9.00
2018-12-22T06:36:12.430Z,7.87
2018-12-22T06:38:44.382Z,7.63
2018-12-22T06:41:13.784Z,9.50
2018-12-22T06:43:44.450Z,9.17
2018-12-22T06:46:14.421Z,9.30
2018-12-22T06:48:44.377Z,8.80
2018-12-22T06:51:14.342Z,9.37
2018-12-22T06:53:46.383Z,9.23
2018-12-22T06:56:16.015Z,10.03
2018-12-22T06:58:46.817Z,9.37
2018-12-22T07:01:16.280Z,9.90
2018-12-22T07:03:46.133Z,10.00
2018-12-22T07:06:15.463Z,10.03
2018-12-22T07:08:44.875Z,10.03
2018-12-22T07:11:14.442Z,9.60
2018-12-22T07:13:44.072Z,10.83
2018-12-22T07:16:14.119Z,10.00
2018-12-22T07:18:44.559Z,11.00
2018-12-22T07:21:14.223Z,10.33
2018-12-22T07:23:44.625Z,10.37
2018-12-22T07:26:14.089Z,10.53
2018-12-22T07:28:43.622Z,10.73
2018-12-22T07:31:13.523Z,11.00
2018-12-22T07:33:43.525Z,11.70
2018-12-22T07:36:15.222Z,11.00
2018-12-22T07:38:44.851Z,11.77
2018-12-22T07:41:14.632Z,10.97
2018-12-22T07:43:44.063Z,10.53
2018-12-22T07:46:13.833Z,10.97
2018-12-22T07:48:43.476Z,11.30
2018-12-22T07:51:12.923Z,11.47
2018-12-22T07:53:42.886Z,11.53
2018-12-22T07:56:12.283Z,11.70
2018-12-22T07:58:42.862Z,10.87
2018-12-22T08:01:14.443Z,11.40
2018-12-22T08:03:43.805Z,11.73
2018-12-22T08:06:13.642Z,11.13
2018-12-22T08:08:44.253Z,11.53
2018-12-22T08:11:15.192Z,11.80
2018-12-22T08:13:45.302Z,11.53
2018-12-22T08:16:16.667Z,12.17
2018-12-22T08:18:46.590Z,11.60
2018-12-22T08:21:16.223Z,11.87
2018-12-22T08:23:45.625Z,11.60
2018-12-22T08:26:15.168Z,11.63
2018-12-22T08:28:44.598Z,11.67
2018-12-22T08:31:14.276Z,11.10
2018-12-22T08:33:43.760Z,12.13
2018-12-22T08:36:13.256Z,11.53
2018-12-22T08:38:42.965Z,12.57
2018-12-22T08:41:12.966Z,11.43
2018-12-22T08:43:42.763Z,11.60
2018-12-22T08:46:12.894Z,12.10
2018-12-22T08:48:46.254Z,12.90
2018-12-22T08:51:16.034Z,10.50
2018-12-22T08:53:45.787Z,11.60
2018-12-22T08:56:21.018Z,10.98
2018-12-22T08:58:51.717Z,11.93
2018-12-22T09:01:22.250Z,11.90
2018-12-22T09:03:51.656Z,11.18
2018-12-22T09:06:21.071Z,12.23
2018-12-22T09:08:51.419Z,11.53
2018-12-22T09:11:20.834Z,11.47
2018-12-22T09:13:50.206Z,12.40
2018-12-22T09:16:19.557Z,11.53
2018-12-22T09:18:48.970Z,12.28
2018-12-22T09:21:18.480Z,11.20
2018-12-22T09:23:48.075Z,11.63
2018-12-22T09:26:17.783Z,11.67
2018-12-22T09:28:47.244Z,12.17
2018-12-22T09:31:16.690Z,12.60
2018-12-22T09:33:47.852Z,10.73
2018-12-22T09:36:18.428Z,11.37
2018-12-22T09:38:49.006Z,10.97
2018-12-22T09:41:19.755Z,10.90
2018-12-22T09:43:49.159Z,11.43
2018-12-22T09:46:18.659Z,10.78
2018-12-22T09:48:48.482Z,11.30
2018-12-22T09:51:18.219Z,11.27
2018-12-22T09:53:47.583Z,10.80
2018-12-22T09:56:17.068Z,10.00
2018-12-22T09:58:51.812Z,11.43
2018-12-22T10:01:21.812Z,10.93
2018-12-22T10:03:51.238Z,10.80
2018-12-22T10:06:20.895Z,10.40
2018-12-22T10:08:50.306Z,10.10
2018-12-22T10:11:20.266Z,10.40
2018-12-22T10:13:50.857Z,10.63
2018-12-22T10:16:21.014Z,10.00
2018-12-22T10:18:55.760Z,10.95
2018-12-22T10:21:25.402Z,10.20
2018-12-22T10:23:54.990Z,9.47
2018-12-22T10:26:24.735Z,9.50
2018-12-22T10:28:54.330Z,10.23
2018-12-22T10:31:23.799Z,10.07
2018-12-22T10:33:53.164Z,10.18
2018-12-22T10:36:22.518Z,9.53
2018-12-22T10:38:52.809Z,10.15
2018-12-22T10:41:27.626Z,9.83
2018-12-22T10:43:57.110Z,10.17
2018-12-22T10:46:26.919Z,9.13
2018-12-22T10:48:56.461Z,9.03
2018-12-22T10:51:25.907Z,9.07
2018-12-22T10:53:55.756Z,7.90
2018-12-22T10:56:25.216Z,7.67
2018-12-22T10:58:58.480Z,8.10
2018-12-22T11:01:29.216Z,7.50
2018-12-22T11:03:59.157Z,6.80
2018-12-22T11:06:28.620Z,7.43
2018-12-22T11:08:58.046Z,7.00
2018-12-22T11:11:27.721Z,8.07
2018-12-22T11:13:57.235Z,7.37
2018-12-22T11:16:26.618Z,7.93
2018-12-22T11:18:55.944Z,7.03
2018-12-22T11:21:25.270Z,7.53
2018-12-22T11:23:58.213Z,7.62
2018-12-22T11:26:27.986Z,7.03
2018-12-22T11:28:57.486Z,6.40
2018-12-22T11:31:35.019Z,6.43
2018-12-22T11:33:59.984Z,7.00
2018-12-22T11:36:29.687Z,5.90
2018-12-22T11:38:59.944Z,6.57
2018-12-22T11:41:29.392Z,6.77
2018-12-22T11:43:59.258Z,6.25
2018-12-22T11:46:28.990Z,6.30
2018-12-22T11:49:10.032Z,5.95
2018-12-22T11:51:39.354Z,6.40
2018-12-22T11:54:08.780Z,5.00
2018-12-22T11:56:38.142Z,5.73
2018-12-22T11:59:08.294Z,5.03
2018-12-22T12:01:43.478Z,5.50
2018-12-22T12:04:10.913Z,5.40
2018-12-22T12:06:40.254Z,4.93
2018-12-22T12:09:09.831Z,4.97
2018-12-22T12:11:40.578Z,4.60
2018-12-22T12:14:09.942Z,5.07
2018-12-22T12:16:50.114Z,4.57
2018-12-22T12:19:25.349Z,4.43
2018-12-22T12:21:55.190Z,4.80
2018-12-22T12:24:29.855Z,4.50
2018-12-22T12:26:59.628Z,4.72
2018-12-22T12:29:31.268Z,5.00
2018-12-22T12:32:01.337Z,4.80
2018-12-22T12:34:30.741Z,4.17
2018-12-22T12:37:00.077Z,4.78
2018-12-22T12:39:30.046Z,4.43
2018-12-22T12:41:59.526Z,4.90
2018-12-22T12:44:29.176Z,4.50
2018-12-22T12:46:59.043Z,4.97
2018-12-22T12:49:28.609Z,4.10
2018-12-22T12:51:58.510Z,4.28
2018-12-22T12:54:28.501Z,4.33
2018-12-22T12:56:59.712Z,4.65
2018-12-22T12:59:31.640Z,4.10
2018-12-22T13:02:02.395Z,4.23
2018-12-22T13:04:31.997Z,4.33
2018-12-22T13:07:01.610Z,4.40
2018-12-22T13:09:31.393Z,4.00
2018-12-22T13:12:07.988Z,3.90
2018-12-22T13:14:37.492Z,4.40
2018-12-22T13:17:06.879Z,4.40
2018-12-22T13:19:37.051Z,4.27
2018-12-22T13:22:06.659Z,4.30
2018-12-22T13:24:36.704Z,3.92
2018-12-22T13:27:07.448Z,4.03
2018-12-22T13:29:37.222Z,3.90
2018-12-22T13:32:09.668Z,4.20
2018-12-22T13:34:38.393Z,3.80
2018-12-22T13:37:08.582Z,4.03
2018-12-22T13:39:38.631Z,3.43
2018-12-22T13:42:07.991Z,3.83
2018-12-22T13:44:37.956Z,3.70
2018-12-22T13:47:07.877Z,3.47
2018-12-22T13:49:37.449Z,3.60
2018-12-22T13:52:07.282Z,4.20
2018-12-22T13:54:36.703Z,3.80
2018-12-22T13:57:06.130Z,4.00
2018-12-22T13:59:35.627Z,3.50
2018-12-22T14:02:06.858Z,3.50
2018-12-22T14:04:38.153Z,3.60
2018-12-22T14:07:13.507Z,3.20
2018-12-22T14:09:43.867Z,3.50
2018-12-22T14:12:13.601Z,3.30
2018-12-22T14:14:44.067Z,3.17
2018-12-22T14:17:29.883Z,3.30
2018-12-22T14:20:07.846Z,3.45
2018-12-22T14:22:37.576Z,4.00
2018-12-22T14:25:12.184Z,3.63
2018-12-22T14:27:42.068Z,3.63
2018-12-22T14:30:13.523Z,3.10
2018-12-22T14:32:43.892Z,3.47
2018-12-22T14:35:22.805Z,4.00
2018-12-22T14:37:52.226Z,3.27
2018-12-22T14:40:21.604Z,3.57
2018-12-22T14:42:50.987Z,3.57
2018-12-22T14:45:21.157Z,3.50
2018-12-22T14:47:50.711Z,3.30
2018-12-22T14:50:20.719Z,3.60
2018-12-22T14:52:51.144Z,3.00
2018-12-22T14:55:20.585Z,2.93
2018-12-22T14:57:56.183Z,3.10
2018-12-22T15:00:27.472Z,2.80
2018-12-22T15:02:57.476Z,3.00
2018-12-22T15:05:27.742Z,2.87
2018-12-22T15:07:57.160Z,2.73
2018-12-22T15:10:26.706Z,2.83
2018-12-22T15:12:56.010Z,3.58
2018-12-22T15:15:25.352Z,3.10
2018-12-22T15:17:54.722Z,3.20
2018-12-22T15:20:26.681Z,3.40
2018-12-22T15:22:56.632Z,3.12
2018-12-22T15:25:27.015Z,3.20
2018-12-22T15:27:56.824Z,3.20
2018-12-22T15:30:27.510Z,3.37
2018-12-22T15:32:57.043Z,2.90
2018-12-22T15:35:26.924Z,3.43
2018-12-22T15:37:58.540Z,3.02
2018-12-22T15:40:28.143Z,3.13
2018-12-22T15:43:02.412Z,2.95
2018-12-22T15:45:31.858Z,3.10
2018-12-22T15:48:03.423Z,3.00
2018-12-22T15:50:35.839Z,3.13
2018-12-22T15:53:05.341Z,2.90
2018-12-22T15:55:34.720Z,3.60
2018-12-22T15:58:04.330Z,3.50
2018-12-22T16:00:34.434Z,3.80
2018-12-22T16:03:04.254Z,3.45
2018-12-22T16:05:34.458Z,3.60
2018-12-22T16:08:03.792Z,3.43
2018-12-22T16:10:33.293Z,3.60
2018-12-22T16:13:04.650Z,3.20
2018-12-22T16:15:34.148Z,3.57
2018-12-22T16:18:03.639Z,3.50
2018-12-22T16:20:33.180Z,3.80
2018-12-22T16:23:04.868Z,3.77
2018-12-22T16:25:34.763Z,3.17
2018-12-22T16:28:12.710Z,3.43
2018-12-22T16:30:47.797Z,3.70
2018-12-22T16:33:17.254Z,3.43
2018-12-22T16:35:46.600Z,3.83
2018-12-22T16:38:16.106Z,3.93
2018-12-22T16:40:46.225Z,3.67
2018-12-22T16:43:17.336Z,3.50
2018-12-22T16:45:51.431Z,3.27
2018-12-22T16:48:23.776Z,3.70
2018-12-22T16:50:54.096Z,3.40
2018-12-22T16:53:23.461Z,4.15
2018-12-22T16:55:52.945Z,3.97
2018-12-22T16:58:34.323Z,4.00
2018-12-22T17:01:27.764Z,3.90
2018-12-22T17:03:57.702Z,3.52
2018-12-22T17:06:32.359Z,3.70
2018-12-22T17:09:08.439Z,3.85
2018-12-22T17:11:37.855Z,3.83
2018-12-22T17:14:07.614Z,3.60
2018-12-22T17:16:37.502Z,3.77
2018-12-22T17:19:06.961Z,3.73
2018-12-22T17:23:47.327Z,4.40
2018-12-22T17:26:17.003Z,4.37
2018-12-22T17:28:46.754Z,3.77
2018-12-22T17:31:16.165Z,3.77
2018-12-22T17:33:45.587Z,3.50
2018-12-22T17:36:15.620Z,3.70
2018-12-22T17:38:46.890Z,4.03
2018-12-22T17:41:16.240Z,4.30
2018-12-22T17:43:48.234Z,4.23
2018-12-22T17:46:18.070Z,4.10
2018-12-22T17:48:47.463Z,4.20
2018-12-22T17:51:20.488Z,4.27
2018-12-22T17:53:50.782Z,4.20
2018-12-22T17:56:23.859Z,4.50
2018-12-22T17:58:53.278Z,4.23
2018-12-22T18:01:23.991Z,4.50
2018-12-22T18:03:53.395Z,4.70
2018-12-22T18:06:23.104Z,5.03
2018-12-22T18:08:52.454Z,4.23
2018-12-22T18:11:22.151Z,4.10
2018-12-22T18:13:52.308Z,7.27
2018-12-22T18:16:21.739Z,4.50
2018-12-22T18:18:51.196Z,7.03
2018-12-22T18:21:21.220Z,6.77
2018-12-22T18:23:51.509Z,5.70
2018-12-22T18:26:21.648Z,4.93
2018-12-22T18:28:51.270Z,5.15
2018-12-22T18:31:21.675Z,4.73
2018-12-22T18:33:51.710Z,4.77
2018-12-22T18:36:21.107Z,4.93
2018-12-22T18:38:50.506Z,5.33
2018-12-22T18:41:19.879Z,4.40
2018-12-22T18:43:50.144Z,4.35
2018-12-22T18:46:20.385Z,4.43
2018-12-22T18:48:49.770Z,5.10
2018-12-22T18:51:19.258Z,4.77
2018-12-22T18:53:49.962Z,4.57
2018-12-22T18:56:20.024Z,4.20
2018-12-22T18:58:49.643Z,11.03
2018-12-22T19:01:19.079Z,13.90
2018-12-22T19:03:49.077Z,8.17
2018-12-22T19:06:18.518Z,6.57
2018-12-22T19:08:49.939Z,6.97
2018-12-22T19:11:21.314Z,4.90
2018-12-22T19:13:51.102Z,5.43
2018-12-22T19:16:20.782Z,5.17
2018-12-22T19:18:50.514Z,5.23
2018-12-22T19:21:19.943Z,4.50
2018-12-22T19:23:50.328Z,4.97
2018-12-22T19:26:20.807Z,6.53
2018-12-22T19:28:50.280Z,6.70
2018-12-22T19:31:20.264Z,4.97
2018-12-22T19:33:53.578Z,4.40
2018-12-22T19:36:23.771Z,4.33
2018-12-22T19:38:53.627Z,4.87
2018-12-22T19:41:24.640Z,5.53
2018-12-22T19:43:54.250Z,4.87
2018-12-22T19:46:23.733Z,4.20
2018-12-22T19:48:53.473Z,4.37
2018-12-22T19:51:27.559Z,4.97
2018-12-22T19:53:57.755Z,4.83
2018-12-22T19:56:27.736Z,4.60
2018-12-22T19:58:57.140Z,5.10
2018-12-22T20:01:27.300Z,5.10
2018-12-22T20:04:02.118Z,4.42
2018-12-22T20:06:29.841Z,4.00
2018-12-22T20:08:59.987Z,5.00
2018-12-22T20:11:31.075Z,4.37
2018-12-22T20:14:00.824Z,5.53
2018-12-22T20:16:30.718Z,5.63
2018-12-22T20:19:02.612Z,5.40
2018-12-22T20:21:33.502Z,5.03
2018-12-22T20:24:03.519Z,5.08
2018-12-22T20:26:32.903Z,4.70
2018-12-22T20:29:02.539Z,4.25
2018-12-22T20:31:35.478Z,5.10
2018-12-22T20:34:11.101Z,4.50
2018-12-22T20:36:37.092Z,5.20
2018-12-22T20:39:07.362Z,4.67
2018-12-22T20:41:37.600Z,4.77
2018-12-22T20:44:07.527Z,5.67
2018-12-22T20:46:44.247Z,5.33
2018-12-22T20:49:14.214Z,5.23
2018-12-22T20:51:44.656Z,5.10
2018-12-22T20:54:14.298Z,6.10
2018-12-22T20:56:45.128Z,5.28
2018-12-22T20:59:15.355Z,5.07
2018-12-22T21:01:45.307Z,5.40
2018-12-22T21:04:19.767Z,12.40
2018-12-22T21:06:47.562Z,10.57
2018-12-22T21:09:17.187Z,7.37
2018-12-22T21:11:52.315Z,5.78
2018-12-22T21:14:21.705Z,5.07
2018-12-22T21:16:51.039Z,5.20
2018-12-22T21:19:20.904Z,5.00
2018-12-22T21:21:51.068Z,5.85
2018-12-22T21:24:20.487Z,5.60
2018-12-22T21:26:51.007Z,5.22
2018-12-22T21:29:21.666Z,5.43
2018-12-22T21:31:51.305Z,5.13
2018-12-22T21:34:28.167Z,5.13
2018-12-22T21:36:52.997Z,5.13
2018-12-22T21:39:22.759Z,5.57
2018-12-22T21:41:52.055Z,5.17
2018-12-22T21:44:21.859Z,4.83
2018-12-22T21:46:51.844Z,5.27
2018-12-22T21:49:21.875Z,5.47
2018-12-22T21:51:51.250Z,5.40
2018-12-22T21:54:21.552Z,5.37
2018-12-22T21:56:50.982Z,5.13
2018-12-22T21:59:20.468Z,4.83
2018-12-22T22:01:50.881Z,5.58
2018-12-22T22:04:20.267Z,5.60
2018-12-22T22:06:49.662Z,5.53
2018-12-22T22:09:19.830Z,5.70
2018-12-22T22:11:49.219Z,5.47
2018-12-22T22:14:19.596Z,5.43
2018-12-22T22:16:49.710Z,5.87
2018-12-22T22:19:19.265Z,5.77
2018-12-22T22:21:48.801Z,5.90
2018-12-22T22:24:18.530Z,5.80
2018-12-22T22:26:48.196Z,5.20
2018-12-22T22:29:17.595Z,6.13
2018-12-22T22:31:47.239Z,6.10
2018-12-22T22:34:16.977Z,5.10
2018-12-22T22:36:46.423Z,5.80
2018-12-22T22:39:15.766Z,5.17
2018-12-22T22:41:46.557Z,5.33
2018-12-22T22:44:16.743Z,5.27
2018-12-22T22:46:47.859Z,4.53
2018-12-22T22:49:18.125Z,4.37
2018-12-22T22:51:48.204Z,5.40
2018-12-22T22:54:20.193Z,5.07
2018-12-22T22:56:52.540Z,4.47
2018-12-22T22:59:22.629Z,4.00
2018-12-22T23:01:52.738Z,3.73
2018-12-22T23:04:22.552Z,3.00
2018-12-22T23:06:52.177Z,3.40
2018-12-22T23:09:21.600Z,3.77
2018-12-22T23:11:51.366Z,3.60
2018-12-22T23:14:20.718Z,3.03
2018-12-22T23:16:52.722Z,3.60
2018-12-22T23:19:22.552Z,3.57
2018-12-22T23:21:51.958Z,3.40
2018-12-22T23:24:21.659Z,3.30
2018-12-22T23:26:51.882Z,3.40
2018-12-22T23:29:21.799Z,3.30
2018-12-22T23:31:51.418Z,3.43
2018-12-22T23:34:21.050Z,3.10
2018-12-22T23:36:51.006Z,3.00
2018-12-22T23:39:21.521Z,3.30
2018-12-22T23:41:50.915Z,3.40
2018-12-22T23:44:21.342Z,3.10
2018-12-22T23:46:50.835Z,3.67
2018-12-22T23:49:20.487Z,3.27
2018-12-22T23:51:50.419Z,3.40
2018-12-22T23:54:20.059Z,3.40
2018-12-22T23:56:49.390Z,3.70
2018-12-22T23:59:19.039Z,3.60
